Time;durP1;ratioP1;P1;durP2;ratioP2;P2;SDS_P1;SDS_P2;PMS_P1;PMS_P2;Temp;Humidity;BMP_temperature;BMP_pressure;BME280_temperature;BME280_humidity;BME280_pressure;Samples;Min_cycle;Max_cycle;Signal;HPM_P1;HPM_P2
2022/09/03 00:01:42;;;;;;;0.40;0.40;;;;;;;;;;7379617;19;20121;-70
2022/09/03 00:04:21;;;;;;;0.20;0.20;;;;;;;;;;7380053;19;20659;-70
2022/09/03 00:06:54;;;;;;;0.40;0.40;;;;;;;;;;7383189;19;20097;-70
2022/09/03 00:09:38;;;;;;;0.30;0.30;;;;;;;;;;7383559;19;20109;-70
2022/09/03 00:12:14;;;;;;;0.40;0.40;;;;;;;;;;7383358;19;20126;-70
2022/09/03 00:15:03;;;;;;;0.30;0.30;;;;;;;;;;7381540;19;20109;-70
2022/09/03 00:17:40;;;;;;;0.30;0.30;;;;;;;;;;7382385;19;20125;-69
2022/09/03 00:20:30;;;;;;;0.40;0.40;;;;;;;;;;7384044;19;20612;-70
2022/09/03 00:23:00;;;;;;;0.30;0.30;;;;;;;;;;7379479;19;20548;-71
2022/09/03 00:25:48;;;;;;;0.50;0.50;;;;;;;;;;7381715;19;20124;-72
2022/09/03 00:28:17;;;;;;;0.30;0.30;;;;;;;;;;7380501;19;20198;-72
2022/09/03 00:30:45;;;;;;;0.30;0.30;;;;;;;;;;7382713;19;20098;-72
2022/09/03 00:33:17;;;;;;;0.60;0.60;;;;;;;;;;7378586;19;20127;-71
2022/09/03 00:35:50;;;;;;;0.40;0.40;;;;;;;;;;7382125;19;20108;-70
2022/09/03 00:38:15;;;;;;;0.20;0.20;;;;;;;;;;7380477;19;20117;-70
2022/09/03 00:41:02;;;;;;;0.30;0.30;;;;;;;;;;7385167;19;20116;-70
2022/09/03 00:43:31;;;;;;;0.30;0.30;;;;;;;;;;7380395;19;20221;-72
2022/09/03 00:45:56;;;;;;;0.30;0.30;;;;;;;;;;7381327;19;20121;-72
2022/09/03 00:48:29;;;;;;;1.02;1.02;;;;;;;;;;7384466;19;20123;-71
2022/09/03 00:51:09;;;;;;;0.40;0.40;;;;;;;;;;7384287;19;20675;-71
2022/09/03 00:53:56;;;;;;;0.30;0.30;;;;;;;;;;7380846;19;20121;-71
2022/09/03 00:56:33;;;;;;;0.30;0.30;;;;;;;;;;7381680;19;20205;-71
2022/09/03 00:59:25;;;;;;;0.30;0.30;;;;;;;;;;7378816;19;20133;-71
2022/09/03 01:01:58;;;;;;;0.30;0.30;;;;;;;;;;7382132;19;20136;-71
2022/09/03 01:04:51;;;;;;;0.30;0.30;;;;;;;;;;7375563;19;20591;-72
2022/09/03 01:07:32;;;;;;;0.38;0.38;;;;;;;;;;7381324;19;20113;-71
2022/09/03 01:10:06;;;;;;;0.30;0.30;;;;;;;;;;7385620;19;20105;-72
2022/09/03 01:12:43;;;;;;;0.68;0.68;;;;;;;;;;7381669;19;20153;-71
2022/09/03 01:15:30;;;;;;;0.30;0.30;;;;;;;;;;7383675;19;20116;-72
2022/09/03 01:18:14;;;;;;;1.00;1.00;;;;;;;;;;7382633;19;20685;-71
2022/09/03 01:20:48;;;;;;;0.30;0.30;;;;;;;;;;7379295;19;20112;-70
2022/09/03 01:23:23;;;;;;;0.30;0.30;;;;;;;;;;7377844;19;20191;-69
2022/09/03 01:26:23;;;;;;;0.30;0.30;;;;;;;;;;7381092;19;20485;-70
2022/09/03 01:29:19;;;;;;;0.30;0.30;;;;;;;;;;7382242;19;20165;-70
2022/09/03 01:31:50;;;;;;;0.30;0.30;;;;;;;;;;7385901;19;20121;-70
2022/09/03 01:35:05;;;;;;;0.32;0.32;;;;;;;;;;7379882;19;20128;-70
2022/09/03 01:37:42;;;;;;;0.30;0.30;;;;;;;;;;7381279;19;20739;-69
2022/09/03 01:40:07;;;;;;;0.20;0.20;;;;;;;;;;7385505;19;20117;-71
2022/09/03 01:43:00;;;;;;;0.30;0.30;;;;;;;;;;7381116;19;20596;-72
2022/09/03 01:45:47;;;;;;;0.30;0.30;;;;;;;;;;7379766;19;20575;-72
2022/09/03 01:48:42;;;;;;;0.30;0.30;;;;;;;;;;7385822;19;20453;-70
2022/09/03 01:51:18;;;;;;;0.30;0.30;;;;;;;;;;7379157;19;20117;-70
2022/09/03 01:54:02;;;;;;;0.30;0.30;;;;;;;;;;7379901;19;20125;-70
2022/09/03 01:56:36;;;;;;;0.30;0.30;;;;;;;;;;7383494;19;20102;-70
2022/09/03 01:59:08;;;;;;;0.30;0.30;;;;;;;;;;7392194;19;20168;-69
2022/09/03 02:01:49;;;;;;;0.30;0.30;;;;;;;;;;7382791;19;20478;-69
2022/09/03 02:04:19;;;;;;;0.30;0.30;;;;;;;;;;7382555;19;20148;-69
2022/09/03 02:06:47;;;;;;;0.47;0.47;;;;;;;;;;7385819;19;20102;-69
2022/09/03 02:09:13;;;;;;;0.30;0.30;;;;;;;;;;7387617;19;20558;-69
2022/09/03 02:11:40;;;;;;;0.30;0.30;;;;;;;;;;7379092;19;20137;-70
2022/09/03 02:14:05;;;;;;;0.77;0.77;;;;;;;;;;7378821;19;20674;-70
2022/09/03 02:16:32;;;;;;;0.30;0.30;;;;;;;;;;7387793;19;20121;-70
2022/09/03 02:19:00;;;;;;;0.43;0.43;;;;;;;;;;7380758;19;20105;-70
2022/09/03 02:21:31;;;;;;;0.20;0.20;;;;;;;;;;7384854;19;20545;-71
2022/09/03 02:23:56;;;;;;;0.20;0.20;;;;;;;;;;7383515;19;20516;-69
2022/09/03 02:26:22;;;;;;;0.20;0.20;;;;;;;;;;7384019;19;20141;-69
2022/09/03 02:28:49;;;;;;;0.30;0.30;;;;;;;;;;7386333;19;20112;-70
2022/09/03 02:31:14;;;;;;;0.30;0.30;;;;;;;;;;7381557;19;20132;-69
2022/09/03 02:33:41;;;;;;;0.50;0.50;;;;;;;;;;7381352;19;20633;-70
2022/09/03 02:36:11;;;;;;;6.88;0.75;;;;;;;;;;7387092;19;20106;-69
2022/09/03 02:38:40;;;;;;;0.30;0.30;;;;;;;;;;7390033;19;20133;-70
2022/09/03 02:41:05;;;;;;;0.25;0.25;;;;;;;;;;7388966;19;20117;-70
2022/09/03 02:43:37;;;;;;;0.32;0.32;;;;;;;;;;7389276;19;20117;-70
2022/09/03 02:46:04;;;;;;;0.30;0.30;;;;;;;;;;7393572;19;20230;-70
2022/09/03 14:47:53;;;;;;;0.30;0.30;;;;;;;;;;7374874;19;20196;-73
2022/09/03 14:50:33;;;;;;;0.30;0.30;;;;;;;;;;7377345;19;21262;-74
2022/09/03 14:53:06;;;;;;;1.50;0.50;;;;;;;;;;7379484;19;20131;-73
2022/09/03 14:55:50;;;;;;;0.95;0.52;;;;;;;;;;7382191;19;20125;-74
2022/09/03 14:58:41;;;;;;;0.30;0.30;;;;;;;;;;7377441;19;20117;-74
2022/09/03 15:01:12;;;;;;;0.50;0.50;;;;;;;;;;7379651;19;20155;-74
2022/09/03 15:03:46;;;;;;;0.40;0.40;;;;;;;;;;7369236;19;20201;-73
2022/09/03 15:06:39;;;;;;;0.30;0.30;;;;;;;;;;7374240;19;20572;-75
2022/09/03 15:09:23;;;;;;;0.30;0.30;;;;;;;;;;7368558;19;20117;-74
2022/09/03 15:11:54;;;;;;;0.30;0.30;;;;;;;;;;7371987;19;20124;-73
2022/09/03 15:14:54;;;;;;;0.43;0.43;;;;;;;;;;7379661;19;20128;-73
2022/09/03 15:17:52;;;;;;;0.40;0.40;;;;;;;;;;7383122;19;20152;-73
2022/09/03 15:20:49;;;;;;;0.40;0.40;;;;;;;;;;7380541;19;20156;-73
2022/09/03 15:23:23;;;;;;;0.60;0.60;;;;;;;;;;7382663;19;20145;-75
2022/09/03 15:26:22;;;;;;;0.30;0.30;;;;;;;;;;7381057;19;20131;-74
2022/09/03 15:29:09;;;;;;;0.40;0.40;;;;;;;;;;7383878;19;20173;-73
2022/09/03 15:31:49;;;;;;;0.43;0.43;;;;;;;;;;7377181;19;20121;-73
2022/09/03 15:34:20;;;;;;;0.30;0.30;;;;;;;;;;7374584;19;20181;-73
2022/09/03 15:36:50;;;;;;;0.40;0.40;;;;;;;;;;7383734;19;20587;-73
2022/09/03 15:39:19;;;;;;;0.30;0.30;;;;;;;;;;7377173;19;20145;-73
2022/09/03 15:42:00;;;;;;;0.75;0.65;;;;;;;;;;7377504;19;20136;-74
2022/09/03 15:44:33;;;;;;;0.30;0.30;;;;;;;;;;7369028;19;20124;-73
2022/09/03 15:47:04;;;;;;;0.47;0.47;;;;;;;;;;7369173;19;20132;-73
2022/09/03 15:49:39;;;;;;;0.30;0.30;;;;;;;;;;7369427;19;20123;-73
2022/09/03 15:52:09;;;;;;;0.30;0.30;;;;;;;;;;7360888;19;20140;-73
2022/09/03 15:54:45;;;;;;;0.30;0.30;;;;;;;;;;7374767;19;20169;-73
2022/09/03 15:57:25;;;;;;;0.38;0.38;;;;;;;;;;7376085;19;20125;-73
2022/09/03 16:00:00;;;;;;;0.30;0.30;;;;;;;;;;7373202;19;20595;-72
2022/09/03 16:02:30;;;;;;;0.30;0.30;;;;;;;;;;7377321;19;20109;-73
2022/09/03 16:05:23;;;;;;;0.30;0.30;;;;;;;;;;7378369;19;20501;-73
2022/09/03 16:08:04;;;;;;;0.30;0.30;;;;;;;;;;7378377;19;20125;-73
2022/09/03 16:10:49;;;;;;;0.40;0.40;;;;;;;;;;7380009;19;20176;-73
2022/09/03 16:13:24;;;;;;;0.30;0.30;;;;;;;;;;7377115;19;20131;-73
2022/09/03 16:16:01;;;;;;;0.30;0.30;;;;;;;;;;7380168;19;20112;-73
2022/09/03 16:18:39;;;;;;;0.30;0.30;;;;;;;;;;7380516;19;20149;-73
2022/09/03 16:21:09;;;;;;;0.30;0.30;;;;;;;;;;7376008;19;20170;-73
2022/09/03 16:24:03;;;;;;;0.30;0.30;;;;;;;;;;7374205;19;20158;-73
2022/09/03 16:26:34;;;;;;;0.40;0.40;;;;;;;;;;7380599;19;20136;-73
2022/09/03 16:29:05;;;;;;;0.38;0.38;;;;;;;;;;7380501;19;20108;-74
2022/09/03 16:31:55;;;;;;;0.30;0.30;;;;;;;;;;7378757;19;20128;-73
2022/09/03 16:34:49;;;;;;;0.30;0.30;;;;;;;;;;7378212;19;20614;-74
2022/09/03 16:37:39;;;;;;;0.30;0.30;;;;;;;;;;7377710;19;20549;-73
2022/09/03 16:40:19;;;;;;;0.30;0.30;;;;;;;;;;7379621;19;20146;-73
2022/09/03 16:42:47;;;;;;;1.00;0.70;;;;;;;;;;7374325;19;20685;-73
2022/09/03 16:45:26;;;;;;;0.30;0.30;;;;;;;;;;7379040;19;20117;-73
2022/09/03 16:48:13;;;;;;;0.30;0.30;;;;;;;;;;7376266;19;20713;-73
2022/09/03 16:50:56;;;;;;;0.30;0.30;;;;;;;;;;7376497;19;20129;-74
2022/09/03 16:53:43;;;;;;;0.30;0.30;;;;;;;;;;7374883;19;20160;-74
2022/09/03 16:56:43;;;;;;;0.30;0.30;;;;;;;;;;7376055;19;20104;-74
2022/09/03 16:59:26;;;;;;;0.30;0.30;;;;;;;;;;7375171;19;20112;-74
2022/09/03 17:02:16;;;;;;;0.40;0.40;;;;;;;;;;7377900;19;20109;-73
2022/09/03 17:05:09;;;;;;;0.30;0.30;;;;;;;;;;7380024;19;20607;-74
2022/09/03 17:07:59;;;;;;;0.30;0.30;;;;;;;;;;7378547;19;20575;-74
2022/09/03 17:10:59;;;;;;;0.43;0.43;;;;;;;;;;7382542;19;20193;-74
2022/09/03 17:13:46;;;;;;;0.30;0.30;;;;;;;;;;7380192;19;20121;-74
2022/09/03 17:16:21;;;;;;;1.10;0.73;;;;;;;;;;7382928;19;20121;-73
2022/09/03 17:19:05;;;;;;;0.30;0.30;;;;;;;;;;7377491;19;20589;-74
2022/09/03 17:21:44;;;;;;;0.35;0.35;;;;;;;;;;7381901;19;20111;-73
2022/09/03 17:24:31;;;;;;;0.85;0.85;;;;;;;;;;7374535;19;20248;-72
2022/09/03 17:27:32;;;;;;;0.30;0.30;;;;;;;;;;7381268;19;20698;-73
2022/09/03 17:30:08;;;;;;;0.30;0.30;;;;;;;;;;7386129;19;20109;-74
2022/09/03 17:32:33;;;;;;;0.30;0.30;;;;;;;;;;7383049;19;21169;-73
2022/09/03 17:35:42;;;;;;;0.30;0.30;;;;;;;;;;7381463;19;20121;-74
2022/09/03 17:38:13;;;;;;;0.30;0.30;;;;;;;;;;7380867;19;20161;-73
2022/09/03 17:40:58;;;;;;;0.30;0.30;;;;;;;;;;7379128;19;20125;-74
2022/09/03 17:43:41;;;;;;;0.35;0.35;;;;;;;;;;7373564;19;20161;-73
2022/09/03 17:46:10;;;;;;;0.68;0.68;;;;;;;;;;7381956;19;20109;-74
2022/09/03 17:48:41;;;;;;;0.45;0.45;;;;;;;;;;7387147;19;20847;-74
2022/09/03 17:51:28;;;;;;;1.02;0.90;;;;;;;;;;7379916;19;20229;-74
2022/09/03 17:54:14;;;;;;;0.30;0.30;;;;;;;;;;7384963;19;20121;-74
2022/09/03 17:56:48;;;;;;;0.30;0.30;;;;;;;;;;7380766;19;20116;-74
2022/09/03 17:59:20;;;;;;;0.30;0.30;;;;;;;;;;7382625;19;20116;-74
2022/09/03 18:02:06;;;;;;;0.30;0.30;;;;;;;;;;7381784;19;20180;-73
2022/09/03 18:04:44;;;;;;;0.20;0.20;;;;;;;;;;7381256;19;20131;-74
2022/09/03 18:07:22;;;;;;;0.38;0.38;;;;;;;;;;7385332;19;20120;-74
2022/09/03 18:10:06;;;;;;;0.30;0.30;;;;;;;;;;7380891;19;20678;-74
2022/09/03 18:12:55;;;;;;;0.30;0.30;;;;;;;;;;7380604;19;20116;-73
2022/09/03 18:15:27;;;;;;;0.30;0.30;;;;;;;;;;7381061;19;20121;-74
2022/09/03 18:17:57;;;;;;;0.30;0.30;;;;;;;;;;7377852;19;20626;-74
2022/09/03 20:11:29;;;;;;;0.30;0.30;;;;;;;;;;7380088;19;20537;-74
2022/09/03 20:14:12;;;;;;;0.43;0.43;;;;;;;;;;7380386;19;20595;-74
2022/09/03 20:17:05;;;;;;;0.30;0.30;;;;;;;;;;7374620;19;20508;-73
2022/09/03 20:19:37;;;;;;;0.30;0.30;;;;;;;;;;7370983;19;20180;-74
2022/09/03 20:22:30;;;;;;;0.30;0.30;;;;;;;;;;7368563;19;20141;-74
2022/09/03 20:25:30;;;;;;;0.30;0.30;;;;;;;;;;7379043;19;20109;-74
2022/09/03 20:28:00;;;;;;;0.30;0.30;;;;;;;;;;7375038;19;20121;-74
2022/09/03 20:30:41;;;;;;;0.28;0.28;;;;;;;;;;7376140;19;20110;-74
2022/09/03 20:33:41;;;;;;;0.30;0.30;;;;;;;;;;7381799;19;20150;-74
2022/09/03 20:36:15;;;;;;;0.30;0.30;;;;;;;;;;7380272;19;20121;-74
2022/09/03 20:38:57;;;;;;;0.30;0.30;;;;;;;;;;7383170;19;20123;-74
2022/09/03 20:41:30;;;;;;;0.45;0.45;;;;;;;;;;7380028;19;20133;-74
2022/09/03 20:44:15;;;;;;;0.40;0.40;;;;;;;;;;7376982;19;20145;-75
2022/09/03 20:46:54;;;;;;;0.30;0.30;;;;;;;;;;7378525;19;20129;-74
2022/09/03 20:49:36;;;;;;;0.40;0.40;;;;;;;;;;7375756;19;20132;-74
2022/09/03 20:52:14;;;;;;;0.30;0.30;;;;;;;;;;7380301;19;20109;-74
2022/09/03 20:54:49;;;;;;;0.30;0.30;;;;;;;;;;7380335;19;20113;-75
2022/09/03 20:57:26;;;;;;;0.30;0.30;;;;;;;;;;7377977;19;20112;-74
2022/09/03 21:00:00;;;;;;;0.30;0.30;;;;;;;;;;7379540;19;20219;-74
2022/09/03 21:03:02;;;;;;;0.30;0.30;;;;;;;;;;7372402;19;20129;-75
2022/09/03 21:06:09;;;;;;;0.30;0.30;;;;;;;;;;7375584;19;20128;-74
2022/09/03 21:08:59;;;;;;;0.30;0.30;;;;;;;;;;7379203;19;20120;-74
2022/09/03 21:11:36;;;;;;;0.30;0.30;;;;;;;;;;7380436;19;20123;-75
2022/09/03 21:14:32;;;;;;;0.30;0.30;;;;;;;;;;7379829;19;20152;-75
2022/09/03 21:17:29;;;;;;;0.25;0.25;;;;;;;;;;7381486;19;20141;-75
2022/09/03 21:20:00;;;;;;;0.40;0.40;;;;;;;;;;7381803;19;20105;-75
2022/09/03 21:22:43;;;;;;;0.40;0.40;;;;;;;;;;7378840;19;20120;-75
2022/09/03 21:25:14;;;;;;;0.30;0.30;;;;;;;;;;7370803;19;20111;-74
2022/09/03 21:27:50;;;;;;;0.30;0.30;;;;;;;;;;7377709;19;20105;-75
2022/09/03 21:30:17;;;;;;;0.30;0.30;;;;;;;;;;7377129;19;20466;-75
2022/09/03 21:32:44;;;;;;;0.30;0.30;;;;;;;;;;7375600;19;20470;-75
2022/09/03 21:35:24;;;;;;;0.30;0.30;;;;;;;;;;7373940;19;20117;-75
2022/09/03 21:38:17;;;;;;;0.30;0.30;;;;;;;;;;7370930;19;20140;-75
2022/09/03 21:41:06;;;;;;;0.30;0.30;;;;;;;;;;7375067;19;20125;-75
2022/09/03 21:43:34;;;;;;;0.30;0.30;;;;;;;;;;7376063;19;20210;-75
2022/09/03 21:46:06;;;;;;;0.40;0.40;;;;;;;;;;7376699;19;20185;-75
2022/09/03 21:48:39;;;;;;;0.30;0.30;;;;;;;;;;7375464;19;20110;-74
2022/09/03 21:51:17;;;;;;;0.30;0.30;;;;;;;;;;7375859;19;20136;-74
2022/09/03 21:53:43;;;;;;;0.30;0.30;;;;;;;;;;7369387;19;20164;-75
2022/09/03 21:56:38;;;;;;;1.17;1.10;;;;;;;;;;7372982;19;20455;-75
2022/09/03 21:59:13;;;;;;;0.30;0.30;;;;;;;;;;7379899;19;20117;-75
2022/09/03 22:01:55;;;;;;;0.30;0.30;;;;;;;;;;7377439;19;20127;-74
2022/09/03 22:04:21;;;;;;;0.30;0.30;;;;;;;;;;7370985;19;20548;-74
2022/09/03 22:07:00;;;;;;;0.30;0.30;;;;;;;;;;7373995;19;20118;-75
2022/09/03 22:09:37;;;;;;;0.32;0.32;;;;;;;;;;7373548;19;20466;-76
2022/09/03 22:12:19;;;;;;;0.30;0.30;;;;;;;;;;7375847;19;20183;-74
2022/09/03 22:14:50;;;;;;;0.45;0.45;;;;;;;;;;7377270;19;20113;-75
2022/09/03 22:17:24;;;;;;;0.50;0.50;;;;;;;;;;7382701;19;20139;-75
2022/09/03 22:19:50;;;;;;;0.30;0.30;;;;;;;;;;7386699;19;20141;-75
2022/09/03 22:22:39;;;;;;;0.25;0.25;;;;;;;;;;7381647;19;20485;-75
2022/09/03 22:25:12;;;;;;;0.30;0.30;;;;;;;;;;7381766;19;20165;-74
2022/09/03 22:28:05;;;;;;;0.30;0.30;;;;;;;;;;7377662;19;20134;-75
2022/09/03 22:30:39;;;;;;;0.30;0.30;;;;;;;;;;7384636;19;20121;-74
2022/09/03 22:33:22;;;;;;;0.30;0.30;;;;;;;;;;7381275;19;20129;-75
2022/09/03 22:36:00;;;;;;;0.30;0.30;;;;;;;;;;7379512;19;20590;-74
2022/09/03 22:38:51;;;;;;;0.20;0.20;;;;;;;;;;7381968;19;20133;-75
2022/09/03 22:41:35;;;;;;;0.30;0.30;;;;;;;;;;7370922;19;20799;-75
2022/09/03 22:44:28;;;;;;;0.30;0.30;;;;;;;;;;7379922;19;20157;-75
2022/09/03 22:47:20;;;;;;;0.30;0.30;;;;;;;;;;7383554;19;20117;-75
2022/09/03 22:49:50;;;;;;;0.30;0.30;;;;;;;;;;7383712;19;20113;-75
2022/09/03 22:52:41;;;;;;;0.30;0.30;;;;;;;;;;7383263;19;20665;-75
2022/09/03 22:55:15;;;;;;;0.30;0.30;;;;;;;;;;7384177;19;20149;-75
2022/09/03 22:57:56;;;;;;;0.30;0.30;;;;;;;;;;7377036;19;20162;-75
2022/09/03 23:00:23;;;;;;;0.20;0.20;;;;;;;;;;7379887;19;20116;-74
2022/09/03 23:03:08;;;;;;;0.30;0.30;;;;;;;;;;7376997;19;20610;-75
2022/09/03 23:05:39;;;;;;;0.20;0.20;;;;;;;;;;7374112;19;20147;-75
2022/09/03 23:08:10;;;;;;;0.30;0.30;;;;;;;;;;7379533;19;20114;-74
2022/09/03 23:10:52;;;;;;;0.40;0.40;;;;;;;;;;7377398;19;20811;-74
2022/09/03 23:13:47;;;;;;;0.30;0.30;;;;;;;;;;7372232;19;20185;-75
2022/09/03 23:16:18;;;;;;;0.30;0.30;;;;;;;;;;7379840;19;20185;-75
2022/09/03 23:18:45;;;;;;;0.30;0.30;;;;;;;;;;7379777;19;20117;-75
2022/09/03 23:21:23;;;;;;;0.30;0.30;;;;;;;;;;7369912;19;20209;-74
2022/09/03 23:23:59;;;;;;;0.30;0.30;;;;;;;;;;7370745;19;20124;-75
2022/09/03 23:26:41;;;;;;;0.60;0.60;;;;;;;;;;7376864;19;20125;-75
2022/09/03 23:29:09;;;;;;;0.55;0.55;;;;;;;;;;7380129;19;20105;-75
2022/09/03 23:31:35;;;;;;;0.30;0.30;;;;;;;;;;7379088;19;20134;-75
2022/09/03 23:34:00;;;;;;;0.30;0.30;;;;;;;;;;7376999;19;20129;-74
2022/09/03 23:36:39;;;;;;;0.30;0.30;;;;;;;;;;7379474;19;20125;-75
2022/09/03 23:39:29;;;;;;;0.30;0.30;;;;;;;;;;7377724;19;20647;-75
2022/09/03 23:42:13;;;;;;;0.30;0.30;;;;;;;;;;7383219;19;20117;-74
2022/09/03 23:44:41;;;;;;;0.30;0.30;;;;;;;;;;7383608;19;20121;-75
2022/09/03 23:47:16;;;;;;;0.30;0.30;;;;;;;;;;7383318;19;20400;-74
2022/09/03 23:50:09;;;;;;;0.30;0.30;;;;;;;;;;7387990;19;20126;-74
2022/09/03 23:52:58;;;;;;;0.30;0.30;;;;;;;;;;7382352;19;20164;-74
2022/09/03 23:55:45;;;;;;;0.30;0.30;;;;;;;;;;7385757;19;20604;-75
2022/09/03 23:58:13;;;;;;;0.43;0.43;;;;;;;;;;7380075;19;20112;-74
